createdAt,value
2022-08-27T00:00:47.606Z,5.18
2022-08-27T00:03:16.613Z,5.13
2022-08-27T00:05:45.304Z,5.55
2022-08-27T00:08:13.950Z,5.72
2022-08-27T00:10:42.408Z,6.10
2022-08-27T00:13:13.966Z,6.90
2022-08-27T00:15:42.086Z,6.75
2022-08-27T00:18:10.082Z,7.55
2022-08-27T00:20:38.289Z,6.68
2022-08-27T00:23:06.380Z,9.02
2022-08-27T00:25:34.442Z,7.93
2022-08-27T00:28:02.719Z,8.85
2022-08-27T00:30:30.782Z,8.50
2022-08-27T00:32:58.805Z,9.25
2022-08-27T00:35:27.330Z,9.32
2022-08-27T00:37:55.257Z,9.75
2022-08-27T00:40:23.899Z,10.10
2022-08-27T00:42:52.039Z,9.80
2022-08-27T00:45:22.659Z,9.32
2022-08-27T00:47:57.453Z,9.40
2022-08-27T00:50:39.241Z,10.68
2022-08-27T00:53:11.650Z,10.25
2022-08-27T00:55:50.972Z,10.57
2022-08-27T00:58:30.123Z,9.82
2022-08-27T01:00:59.743Z,9.05
2022-08-27T01:03:28.512Z,9.90
2022-08-27T01:05:58.765Z,10.15
2022-08-27T01:08:31.838Z,8.88
2022-08-27T01:11:00.622Z,8.17
2022-08-27T01:13:58.932Z,9.38
2022-08-27T01:16:23.181Z,9.02
2022-08-27T01:18:51.586Z,9.02
2022-08-27T01:21:47.794Z,9.52
2022-08-27T01:24:44.089Z,9.85
2022-08-27T01:27:17.930Z,10.15
2022-08-27T01:29:46.289Z,10.23
2022-08-27T01:32:18.626Z,9.80
2022-08-27T01:34:47.861Z,9.82
2022-08-27T01:37:16.891Z,10.88
2022-08-27T01:39:52.151Z,10.05
2022-08-27T01:42:22.422Z,9.60
2022-08-27T01:44:54.480Z,10.70
2022-08-27T01:47:25.059Z,10.02
2022-08-27T01:49:59.112Z,9.45
2022-08-27T01:52:31.219Z,10.52
2022-08-27T01:54:59.903Z,9.88
2022-08-27T01:57:28.591Z,9.25
2022-08-27T01:59:58.282Z,10.70
2022-08-27T02:02:26.578Z,9.50
2022-08-27T02:04:54.800Z,9.68
2022-08-27T02:07:22.821Z,9.20
2022-08-27T02:09:50.752Z,10.40
2022-08-27T02:12:18.807Z,9.75
2022-08-27T02:14:46.809Z,9.70
2022-08-27T02:17:14.886Z,9.52
2022-08-27T02:19:42.813Z,9.63
2022-08-27T02:22:10.830Z,9.57
2022-08-27T02:24:38.901Z,9.77
2022-08-27T02:27:07.027Z,9.30
2022-08-27T02:29:35.503Z,10.43
2022-08-27T02:32:03.653Z,10.05
2022-08-27T02:34:31.785Z,10.70
2022-08-27T02:37:02.823Z,9.95
2022-08-27T02:39:30.728Z,10.00
2022-08-27T02:41:59.005Z,9.75
2022-08-27T02:44:27.226Z,9.02
2022-08-27T02:46:55.424Z,9.73
2022-08-27T02:49:23.430Z,9.77
2022-08-27T02:51:55.682Z,10.38
2022-08-27T02:54:25.045Z,10.65
2022-08-27T02:56:55.383Z,9.85
2022-08-27T02:59:23.814Z,9.85
2022-08-27T03:01:52.042Z,9.80
2022-08-27T03:04:20.198Z,9.50
2022-08-27T03:06:48.698Z,9.32
2022-08-27T03:09:16.743Z,9.50
2022-08-27T03:11:44.797Z,10.05
2022-08-27T03:14:13.106Z,9.23
2022-08-27T03:16:41.428Z,9.05
2022-08-27T03:19:09.589Z,9.88
2022-08-27T03:21:38.302Z,9.30
2022-08-27T03:24:09.358Z,8.35
2022-08-27T03:26:39.710Z,8.18
2022-08-27T03:29:11.401Z,9.32
2022-08-27T03:31:39.318Z,8.63
2022-08-27T03:34:09.594Z,8.23
2022-08-27T03:36:37.907Z,9.43
2022-08-27T03:39:05.798Z,7.80
2022-08-27T03:41:40.037Z,7.78
2022-08-27T03:44:22.172Z,8.73
2022-08-27T03:46:51.483Z,9.13
2022-08-27T03:49:21.349Z,8.13
2022-08-27T03:51:53.526Z,8.38
2022-08-27T03:54:21.419Z,8.05
2022-08-27T03:56:49.279Z,8.82
2022-08-27T03:59:17.360Z,8.65
2022-08-27T04:01:46.155Z,7.85
2022-08-27T04:04:14.239Z,7.60
2022-08-27T04:06:42.319Z,8.02
2022-08-27T04:09:10.202Z,8.30
2022-08-27T04:11:37.963Z,8.32
2022-08-27T04:14:07.609Z,7.97
2022-08-27T04:16:48.933Z,8.30
2022-08-27T04:19:22.905Z,8.23
2022-08-27T04:21:54.367Z,8.35
2022-08-27T04:24:22.299Z,8.55
2022-08-27T04:26:50.380Z,8.27
2022-08-27T04:29:18.285Z,8.27
2022-08-27T04:31:46.282Z,8.32
2022-08-27T04:34:17.786Z,8.48
2022-08-27T04:36:46.455Z,8.20
2022-08-27T04:39:15.334Z,8.25
2022-08-27T04:41:43.455Z,9.13
2022-08-27T04:44:12.730Z,8.60
2022-08-27T04:46:43.046Z,8.38
2022-08-27T04:49:18.070Z,8.30
2022-08-27T04:51:47.722Z,8.40
2022-08-27T04:54:16.258Z,8.20
2022-08-27T04:56:45.163Z,8.02
2022-08-27T04:59:13.689Z,7.53
2022-08-27T05:01:42.541Z,7.72
2022-08-27T05:04:12.875Z,7.30
2022-08-27T05:06:40.926Z,7.97
2022-08-27T05:09:09.021Z,7.00
2022-08-27T05:11:37.369Z,6.53
2022-08-27T05:14:07.833Z,6.57
2022-08-27T05:16:36.805Z,6.43
2022-08-27T05:19:08.865Z,6.43
2022-08-27T05:21:38.931Z,6.80
2022-08-27T05:24:08.766Z,5.40
2022-08-27T05:26:37.130Z,6.38
2022-08-27T05:29:06.608Z,5.65
2022-08-27T05:31:35.241Z,5.65
2022-08-27T05:34:10.197Z,5.97
2022-08-27T05:36:47.937Z,5.03
2022-08-27T05:39:17.403Z,5.78
2022-08-27T05:41:45.528Z,6.10
2022-08-27T05:44:39.739Z,5.95
2022-08-27T05:47:01.487Z,6.28
2022-08-27T05:49:28.948Z,6.10
2022-08-27T05:51:56.671Z,5.35
2022-08-27T05:54:24.374Z,5.60
2022-08-27T05:56:51.999Z,6.15
2022-08-27T05:59:38.017Z,6.38
2022-08-27T06:02:06.390Z,6.40
2022-08-27T06:04:34.591Z,6.63
2022-08-27T06:07:02.143Z,6.65
2022-08-27T06:09:30.836Z,6.80
2022-08-27T06:12:00.730Z,6.93
2022-08-27T06:14:28.774Z,6.50
2022-08-27T06:16:56.683Z,6.82
2022-08-27T06:19:24.577Z,7.38
2022-08-27T06:22:01.014Z,7.10
2022-08-27T06:24:40.149Z,6.43
2022-08-27T06:27:10.745Z,6.18
2022-08-27T06:29:38.802Z,6.95
2022-08-27T06:32:06.965Z,6.68
2022-08-27T06:34:34.666Z,6.95
2022-08-27T06:37:02.656Z,7.22
2022-08-27T06:39:30.948Z,7.00
2022-08-27T06:41:59.846Z,6.85
2022-08-27T06:44:34.164Z,7.55
2022-08-27T06:47:03.938Z,6.78
2022-08-27T06:49:32.970Z,6.78
2022-08-27T06:52:00.680Z,7.07
2022-08-27T06:54:28.415Z,6.75
2022-08-27T06:57:00.793Z,6.10
2022-08-27T06:59:28.594Z,6.80
2022-08-27T07:01:56.565Z,6.55
2022-08-27T07:04:32.751Z,6.43
2022-08-27T07:07:02.630Z,6.32
2022-08-27T07:09:33.968Z,6.13
2022-08-27T07:12:02.598Z,6.18
2022-08-27T07:14:34.238Z,6.38
2022-08-27T07:17:07.796Z,6.10
2022-08-27T07:19:40.847Z,6.10
2022-08-27T07:22:09.491Z,5.80
2022-08-27T07:24:38.380Z,5.32
2022-08-27T07:27:07.224Z,5.30
2022-08-27T07:29:34.922Z,6.10
2022-08-27T07:32:02.581Z,5.68
2022-08-27T07:34:30.219Z,6.40
2022-08-27T07:36:57.885Z,5.95
2022-08-27T07:39:25.368Z,5.35
2022-08-27T07:42:15.215Z,6.50
2022-08-27T07:44:42.831Z,5.78
2022-08-27T07:47:10.422Z,5.88
2022-08-27T07:49:38.176Z,5.55
2022-08-27T07:52:05.827Z,5.57
2022-08-27T07:54:33.536Z,5.85
2022-08-27T07:57:01.185Z,5.72
2022-08-27T07:59:29.024Z,6.10
2022-08-27T08:01:58.165Z,5.90
2022-08-27T08:04:27.896Z,6.30
2022-08-27T08:06:56.553Z,5.55
2022-08-27T08:09:25.385Z,5.32
2022-08-27T08:11:54.347Z,6.15
2022-08-27T08:14:22.855Z,5.85
2022-08-27T08:16:50.814Z,5.30
2022-08-27T08:19:18.817Z,5.88
2022-08-27T08:21:46.534Z,5.78
2022-08-27T08:24:14.169Z,5.30
2022-08-27T08:26:42.392Z,6.40
2022-08-27T08:29:13.372Z,5.72
2022-08-27T08:31:49.892Z,5.85
2022-08-27T08:34:19.966Z,5.50
2022-08-27T08:36:53.919Z,5.80
2022-08-27T08:39:24.644Z,6.80
2022-08-27T08:42:04.828Z,5.95
2022-08-27T08:44:45.587Z,5.65
2022-08-27T08:47:49.077Z,5.28
2022-08-27T08:50:27.100Z,6.35
2022-08-27T08:53:08.757Z,4.93
2022-08-27T08:55:56.299Z,4.53
2022-08-27T08:59:09.767Z,5.70
2022-08-27T09:01:37.607Z,5.45
2022-08-27T09:04:10.119Z,5.85
2022-08-27T09:06:48.875Z,5.65
2022-08-27T09:09:31.946Z,4.93
2022-08-27T09:12:19.632Z,5.35
2022-08-27T09:14:53.980Z,4.63
2022-08-27T09:17:21.831Z,5.28
2022-08-27T09:19:52.317Z,4.55
2022-08-27T09:22:42.151Z,5.05
2022-08-27T09:25:35.716Z,5.53
2022-08-27T09:28:32.472Z,5.50
2022-08-27T09:31:17.585Z,6.38
2022-08-27T09:33:56.142Z,5.57
2022-08-27T09:36:25.564Z,5.00
2022-08-27T09:39:07.105Z,5.15
2022-08-27T09:41:46.774Z,4.90
2022-08-27T09:44:19.656Z,5.30
2022-08-27T09:47:04.064Z,5.30
2022-08-27T09:49:34.875Z,5.13
2022-08-27T09:52:03.071Z,5.60
2022-08-27T09:54:48.832Z,5.60
2022-08-27T09:57:38.774Z,5.43
2022-08-27T10:00:15.182Z,4.65
2022-08-27T10:02:55.236Z,5.20
2022-08-27T10:05:40.354Z,4.80
2022-08-27T10:08:51.408Z,5.15
2022-08-27T10:11:29.968Z,4.90
2022-08-27T10:14:14.323Z,4.88
2022-08-27T10:17:07.266Z,4.90
2022-08-27T10:20:05.222Z,4.35
2022-08-27T10:23:24.671Z,4.93
2022-08-27T10:26:12.615Z,5.22
2022-08-27T10:29:11.038Z,4.50
2022-08-27T10:31:57.164Z,5.18
2022-08-27T10:34:43.498Z,5.10
2022-08-27T10:37:44.254Z,4.80
2022-08-27T10:40:18.366Z,5.13
2022-08-27T10:42:49.048Z,4.82
2022-08-27T10:45:53.885Z,5.10
2022-08-27T10:48:38.404Z,4.90
2022-08-27T10:51:29.739Z,4.78
2022-08-27T10:54:46.877Z,5.18
2022-08-27T10:57:45.454Z,4.82
2022-08-27T11:00:22.818Z,4.68
2022-08-27T11:03:03.342Z,5.78
2022-08-27T11:05:47.451Z,4.75
2022-08-27T11:08:23.993Z,4.53
2022-08-27T11:11:57.483Z,5.20
2022-08-27T11:14:59.556Z,4.82
2022-08-27T11:17:51.708Z,4.47
2022-08-27T11:20:46.088Z,4.93
2022-08-27T11:23:19.183Z,4.57
2022-08-27T11:26:01.573Z,4.30
2022-08-27T11:28:55.997Z,4.38
2022-08-27T11:31:29.765Z,4.32
2022-08-27T11:34:15.811Z,4.28
2022-08-27T11:37:10.072Z,4.72
2022-08-27T11:40:04.289Z,4.60
2022-08-27T11:42:50.633Z,4.05
2022-08-27T11:45:28.835Z,4.40
2022-08-27T11:48:01.369Z,4.57
2022-08-27T11:50:31.692Z,4.82
2022-08-27T11:53:07.625Z,4.78
2022-08-27T11:55:40.138Z,4.93
2022-08-27T11:58:11.714Z,4.82
2022-08-27T12:00:42.419Z,4.40
2022-08-27T12:03:28.993Z,4.65
2022-08-27T12:05:56.547Z,4.70
2022-08-27T12:08:30.004Z,4.80
2022-08-27T12:11:39.025Z,4.18
2022-08-27T12:14:22.339Z,4.82
2022-08-27T12:17:22.624Z,4.55
2022-08-27T12:20:20.278Z,3.78
2022-08-27T12:23:40.577Z,4.63
2022-08-27T12:26:36.172Z,4.32
2022-08-27T12:29:37.110Z,3.97
2022-08-27T12:32:25.463Z,4.35
2022-08-27T12:35:08.647Z,3.60
2022-08-27T12:37:56.879Z,3.78
2022-08-27T12:40:31.535Z,4.32
2022-08-27T12:43:29.892Z,4.40
2022-08-27T12:46:01.429Z,4.13
2022-08-27T12:48:34.860Z,4.28
2022-08-27T12:51:14.878Z,4.22
2022-08-27T12:53:43.880Z,4.30
2022-08-27T12:56:37.522Z,4.30
2022-08-27T12:59:47.720Z,4.22
2022-08-27T13:02:59.378Z,3.20
2022-08-27T13:05:27.497Z,3.60
2022-08-27T13:07:55.649Z,4.18
2022-08-27T13:10:31.553Z,4.45
2022-08-27T13:13:10.552Z,3.85
2022-08-27T13:15:48.131Z,4.03
2022-08-27T13:18:17.525Z,3.58
2022-08-27T13:20:50.438Z,4.03
2022-08-27T13:23:24.266Z,4.07
2022-08-27T13:28:41.866Z,4.10
2022-08-27T13:31:11.418Z,4.20
2022-08-27T13:33:41.642Z,3.97
2022-08-27T13:36:10.643Z,4.00
2022-08-27T13:38:49.754Z,3.75
2022-08-27T13:41:47.430Z,3.58
2022-08-27T13:44:27.838Z,3.85
2022-08-27T13:47:09.578Z,4.15
2022-08-27T13:49:40.130Z,3.58
2022-08-27T13:52:25.722Z,3.38
2022-08-27T13:55:10.780Z,3.25
2022-08-27T13:57:48.930Z,3.22
2022-08-27T14:00:38.114Z,3.80
2022-08-27T14:03:50.503Z,3.38
2022-08-27T14:06:46.538Z,3.17
2022-08-27T14:09:29.746Z,3.70
2022-08-27T14:12:02.388Z,3.50
2022-08-27T14:14:32.007Z,3.30
2022-08-27T14:17:02.305Z,3.25
2022-08-27T14:19:36.511Z,3.28
2022-08-27T14:22:05.413Z,3.47
2022-08-27T14:24:33.021Z,3.22
2022-08-27T14:27:10.975Z,3.45
2022-08-27T14:29:38.538Z,3.55
2022-08-27T14:32:08.063Z,3.40
2022-08-27T14:34:36.470Z,3.13
2022-08-27T14:37:04.915Z,3.30
2022-08-27T14:39:32.905Z,3.15
2022-08-27T14:42:01.800Z,3.22
2022-08-27T14:44:29.822Z,3.17
2022-08-27T14:46:58.958Z,2.92
2022-08-27T14:49:40.567Z,3.28
2022-08-27T14:54:37.045Z,2.45
2022-08-27T14:57:06.486Z,2.92
2022-08-27T14:59:34.894Z,2.90
2022-08-27T15:02:07.399Z,3.05
2022-08-27T15:04:35.164Z,3.08
2022-08-27T15:07:04.467Z,3.45
2022-08-27T15:09:32.462Z,3.00
2022-08-27T15:12:00.581Z,3.00
2022-08-27T15:14:34.656Z,2.65
2022-08-27T15:17:02.776Z,2.83
2022-08-27T15:19:50.350Z,2.40
2022-08-27T15:22:22.237Z,2.95
2022-08-27T15:24:57.348Z,2.63
2022-08-27T15:27:32.041Z,3.10
2022-08-27T15:30:16.178Z,3.10
2022-08-27T15:32:49.035Z,3.10
2022-08-27T15:35:23.182Z,2.75
2022-08-27T15:37:50.867Z,2.65
2022-08-27T15:40:20.303Z,2.63
2022-08-27T15:42:58.665Z,2.50
2022-08-27T15:45:27.712Z,2.40
2022-08-27T15:47:57.238Z,2.55
2022-08-27T15:50:26.495Z,2.20
2022-08-27T15:53:01.082Z,2.42
2022-08-27T15:55:33.758Z,2.58
2022-08-27T15:58:01.827Z,2.60
2022-08-27T16:00:33.925Z,2.55
2022-08-27T16:03:06.222Z,2.60
2022-08-27T16:05:37.518Z,2.53
2022-08-27T16:08:05.815Z,3.05
2022-08-27T16:10:33.878Z,2.38
2022-08-27T16:13:01.925Z,2.08
2022-08-27T16:15:31.749Z,2.60
2022-08-27T16:18:01.689Z,2.67
2022-08-27T16:20:29.245Z,2.50
2022-08-27T16:22:56.771Z,2.35
2022-08-27T16:25:24.195Z,2.38
2022-08-27T16:27:54.016Z,2.28
2022-08-27T16:30:22.979Z,2.35
2022-08-27T16:32:57.753Z,2.53
2022-08-27T16:35:25.379Z,2.33
2022-08-27T16:37:53.030Z,2.65
2022-08-27T16:40:24.076Z,2.55
2022-08-27T16:42:52.437Z,2.60
2022-08-27T16:45:23.672Z,2.63
2022-08-27T16:48:09.997Z,2.65
2022-08-27T16:50:38.601Z,3.08
2022-08-27T16:53:14.985Z,2.03
2022-08-27T16:55:45.005Z,2.28
2022-08-27T16:58:28.745Z,2.40
2022-08-27T17:01:03.374Z,2.50
2022-08-27T17:03:31.207Z,2.03
2022-08-27T17:05:59.226Z,2.13
2022-08-27T17:08:27.797Z,2.17
2022-08-27T17:10:57.456Z,2.33
2022-08-27T17:13:33.039Z,2.25
2022-08-27T17:16:01.929Z,2.08
2022-08-27T17:18:29.721Z,2.03
2022-08-27T17:21:01.252Z,1.98
2022-08-27T17:23:40.988Z,2.00
2022-08-27T17:26:11.912Z,1.90
2022-08-27T17:31:28.063Z,2.33
2022-08-27T17:33:59.402Z,1.95
2022-08-27T17:36:30.060Z,2.00
2022-08-27T17:38:58.875Z,2.10
2022-08-27T17:41:39.837Z,1.63
2022-08-27T17:44:19.525Z,2.10
2022-08-27T17:46:48.081Z,2.03
2022-08-27T17:49:16.994Z,2.05
2022-08-27T17:51:48.256Z,2.25
2022-08-27T17:54:44.526Z,1.75
2022-08-27T17:57:24.033Z,1.50
2022-08-27T17:59:53.884Z,1.50
2022-08-27T18:02:32.298Z,1.50
2022-08-27T18:04:59.870Z,1.40
2022-08-27T18:07:27.743Z,1.55
2022-08-27T18:09:55.728Z,1.40
2022-08-27T18:12:26.144Z,1.52
2022-08-27T18:15:26.529Z,1.75
2022-08-27T18:17:54.838Z,1.33
2022-08-27T18:20:27.169Z,1.77
2022-08-27T18:22:55.811Z,1.60
2022-08-27T18:25:27.093Z,1.80
2022-08-27T18:27:59.217Z,1.70
2022-08-27T18:30:26.732Z,1.48
2022-08-27T18:32:54.349Z,1.55
2022-08-27T18:35:32.478Z,1.88
2022-08-27T18:38:00.411Z,2.10
2022-08-27T18:40:35.682Z,1.48
2022-08-27T18:43:05.176Z,2.10
2022-08-27T18:45:34.902Z,1.70
2022-08-27T18:48:02.983Z,1.90
2022-08-27T18:50:30.614Z,1.80
2022-08-27T18:52:58.373Z,1.90
2022-08-27T18:55:28.977Z,2.10
2022-08-27T18:57:56.297Z,1.75
2022-08-27T19:00:25.384Z,1.75
2022-08-27T19:02:53.749Z,1.70
2022-08-27T19:05:27.497Z,1.60
2022-08-27T19:07:57.098Z,1.88
2022-08-27T19:10:25.495Z,2.10
2022-08-27T19:12:53.231Z,2.05
2022-08-27T19:15:21.293Z,2.08
2022-08-27T19:17:54.324Z,2.13
2022-08-27T19:20:22.080Z,1.90
2022-08-27T19:22:49.910Z,2.20
2022-08-27T19:25:18.067Z,2.00
2022-08-27T19:27:47.153Z,2.20
2022-08-27T19:30:17.356Z,2.00
2022-08-27T19:32:45.205Z,2.30
2022-08-27T19:35:13.244Z,1.50
2022-08-27T19:37:52.593Z,1.67
2022-08-27T19:40:22.667Z,1.90
2022-08-27T19:42:50.706Z,1.77
2022-08-27T19:45:23.265Z,1.90
2022-08-27T19:47:53.313Z,2.00
2022-08-27T19:50:22.623Z,1.83
2022-08-27T19:52:51.597Z,1.85
2022-08-27T19:55:20.232Z,2.28
2022-08-27T19:57:48.326Z,2.08
2022-08-27T20:00:19.650Z,1.80
2022-08-27T20:02:47.502Z,2.30
2022-08-27T20:05:20.726Z,2.03
2022-08-27T20:07:53.191Z,2.53
2022-08-27T20:10:31.819Z,1.70
2022-08-27T20:13:06.275Z,1.70
2022-08-27T20:15:36.033Z,2.03
2022-08-27T20:18:06.810Z,1.80
2022-08-27T20:20:37.228Z,2.00
2022-08-27T20:23:05.443Z,1.90
2022-08-27T20:25:35.503Z,2.10
2022-08-27T20:28:21.925Z,2.10
2022-08-27T20:30:51.889Z,2.00
2022-08-27T20:33:19.479Z,2.25
2022-08-27T20:35:47.015Z,2.33
2022-08-27T20:38:14.837Z,1.90
2022-08-27T20:40:43.050Z,1.80
2022-08-27T20:43:10.595Z,1.60
2022-08-27T20:45:39.216Z,1.55
2022-08-27T20:48:06.786Z,1.73
2022-08-27T20:50:35.073Z,1.67
2022-08-27T20:53:03.001Z,2.58
2022-08-27T20:55:30.612Z,1.75
2022-08-27T20:58:16.882Z,1.63
2022-08-27T21:00:44.750Z,1.50
2022-08-27T21:03:14.361Z,1.98
2022-08-27T21:05:43.854Z,1.40
2022-08-27T21:08:11.650Z,1.33
2022-08-27T21:10:50.909Z,1.40
2022-08-27T21:13:20.580Z,1.80
2022-08-27T21:15:56.386Z,1.60
2022-08-27T21:18:29.504Z,1.40
2022-08-27T21:21:00.473Z,1.88
2022-08-27T21:23:29.656Z,1.30
2022-08-27T21:26:07.681Z,1.80
2022-08-27T21:28:35.464Z,1.40
2022-08-27T21:31:03.173Z,1.65
2022-08-27T21:33:31.128Z,1.35
2022-08-27T21:35:58.794Z,1.65
2022-08-27T21:38:27.593Z,1.73
2022-08-27T21:40:56.138Z,1.60
2022-08-27T21:43:25.518Z,1.98
2022-08-27T21:45:58.882Z,1.58
2022-08-27T21:48:28.956Z,1.30
2022-08-27T21:50:57.110Z,1.63
2022-08-27T21:53:25.332Z,1.98
2022-08-27T21:55:54.508Z,1.55
2022-08-27T21:58:26.408Z,1.85
2022-08-27T22:00:54.991Z,1.30
2022-08-27T22:03:25.326Z,1.70
2022-08-27T22:05:53.551Z,1.43
2022-08-27T22:08:22.779Z,1.38
2022-08-27T22:10:55.391Z,1.60
2022-08-27T22:13:23.556Z,1.58
2022-08-27T22:15:51.704Z,1.90
2022-08-27T22:18:19.727Z,1.70
2022-08-27T22:23:19.022Z,1.90
2022-08-27T22:25:46.795Z,1.60
2022-08-27T22:28:15.659Z,2.05
2022-08-27T22:33:16.113Z,1.90
2022-08-27T22:35:47.059Z,1.70
2022-08-27T22:38:15.416Z,1.60
2022-08-27T22:40:43.389Z,1.67
2022-08-27T22:43:12.203Z,1.88
2022-08-27T22:45:41.279Z,1.75
2022-08-27T22:48:12.786Z,2.28
2022-08-27T22:50:40.678Z,1.58
2022-08-27T22:53:08.892Z,1.63
2022-08-27T22:55:37.155Z,1.60
2022-08-27T22:58:05.352Z,1.95
2022-08-27T23:00:37.224Z,1.85
2022-08-27T23:03:09.347Z,1.92
2022-08-27T23:05:40.374Z,1.95
2022-08-27T23:08:12.525Z,2.20
2022-08-27T23:10:42.078Z,2.35
2022-08-27T23:13:11.085Z,1.80
2022-08-27T23:15:39.894Z,2.00
2022-08-27T23:18:09.101Z,1.90
2022-08-27T23:20:36.853Z,2.00
2022-08-27T23:23:04.516Z,2.40
2022-08-27T23:25:52.250Z,2.10
2022-08-27T23:28:20.832Z,2.13
2022-08-27T23:30:48.927Z,2.00
2022-08-27T23:33:17.055Z,2.10
2022-08-27T23:35:48.360Z,2.05
2022-08-27T23:40:47.717Z,2.08
2022-08-27T23:43:17.729Z,2.58
2022-08-27T23:45:46.226Z,2.45
2022-08-27T23:48:14.707Z,2.20
2022-08-27T23:50:43.373Z,2.00
2022-08-27T23:53:14.345Z,2.15
2022-08-27T23:55:43.094Z,2.08
2022-08-27T23:58:11.825Z,2.00
